• Join FlightAware (Why Join?)
  • Login
  • US Flag 
03:40AM EST


 

Airport Tracker/Info


-or-


 

Live Flight TrackerFlight Track Log ✈ XOJ552 ✈ 26-Aug-2013 ✈ KPWM - KBUR

Flight Track Log - Related Links

Times and Time Zones

All times are in EDT time to prevent confusion due to time zone crossing. See the XOJ552 flight status page for this flight to view local times or setup timezone preferences in your user account.

Time Position Orientation Groundspeed Altitude Reporting Facility
EDT Latitude Longitude Course Direction KTS MPH feet Rate Location/Type
04:24PM 43.6767 -70.5397 282° West 267 307 8,900  Level Boston Center
04:25PM 43.6994 -70.6625 284° West 297 342 10,400 2,160 Climbing Boston Center
04:26PM 43.7203 -70.7883 283° West 324 373 13,300 2,760 Climbing Boston Center
04:27PM 43.6908 -70.9242 253° West 348 400 16,000 2,400 Climbing Boston Center
04:28PM 43.6103 -71.2408 261° West  Level FlightAware Approximate
04:28PM 43.6569 -71.0397 248° West 368 423 18,200  Level Boston Center
04:29PM 43.5830 -71.4013 251° West  Level FlightAware Approximate
04:29PM 43.6333 -71.1808 257° West 370 426 20,500  Level Boston Center
04:30PM 43.6350 -71.3300 271° West 380 437 22,300 1,740 Climbing Boston Center
04:31PM 43.6383 -71.4819 272° West 385 443 24,100 1,860 Climbing Boston Center
04:32PM 43.6417 -71.6339 272° West 395 455 26,000 1,740 Climbing Boston Center
04:33PM 43.6428 -71.7944 271° West 412 474 27,600 1,680 Climbing Boston Center
04:34PM 43.6456 -71.9522 271° West 417 480 29,500 1,860 Climbing Boston Center
04:35PM 43.6483 -72.1072 271° West 417 480 31,400 1,680 Climbing Boston Center
04:36PM 43.6486 -72.2622 270° West 417 480 32,900 1,500 Climbing Boston Center
04:37PM 43.6528 -72.4142 272° West 411 473 34,500 1,500 Climbing Boston Center
04:38PM 43.6508 -72.5692 269° West 405 466 35,900 1,620 Climbing Boston Center
04:39PM 43.6525 -72.7386 271° West 405 466 37,700 1,500 Climbing Boston Center
04:40PM 43.6542 -72.8878 271° West 405 466 39,000 1,140 Climbing Boston Center
04:41PM 43.6472 -73.0225 266° West 400 460 40,000 840 Climbing Boston Center
04:42PM 43.6483 -73.1803 271° West 390 449 40,700 540 Climbing Boston Center
04:43PM 43.6475 -73.3267 270° West 384 442 41,200 480 Climbing Boston Center
04:44PM 43.6483 -73.4758 270° West 384 442 41,700 300 Climbing Boston Center
04:45PM 43.6508 -73.6281 271° West 384 442 41,900 300 Climbing Boston Center
04:46PM 43.6514 -73.7831 270° West 396 456 42,300 420 Climbing Boston Center
04:47PM 43.6494 -73.9408 269° West 403 464 42,800 300 Climbing Boston Center
04:48PM 43.6472 -74.0956 269° West 403 464 43,000 60 Climbing Boston Center
04:49PM 43.6469 -74.2506 270° West 403 464 43,000  Level Boston Center
04:50PM 43.6464 -74.4142 270° West 417 480 43,000  Level Boston Center
04:51PM 43.6433 -74.5747 269° West 423 487 43,000  Level Boston Center
04:52PM 43.6422 -74.7383 270° West 423 487 43,000  Level Boston Center
04:53PM 43.6411 -74.9017 270° West 423 487 43,000  Level Boston Center
04:54PM 43.6394 -75.0708 269° West 429 494 43,000 -60 Level Boston Center
04:55PM 43.6375 -75.2344 269° West 429 494 42,900  Descending Boston Center
04:56PM 43.6375 -75.4039 270° West 441 507 43,000  Climbing Boston Center
04:57PM 43.6314 -75.5556 267° West 441 507 43,000  Level Boston Center
04:58PM 43.6289 -75.7217 269° West 441 507 43,000  Level Boston Center
04:59PM 43.6239 -75.8908 268° West 441 507 43,000  Level Boston Center
05:00PM 43.6186 -76.0569 268° West 441 507 43,000  Level Boston Center
05:02PM 43.6125 -76.3508 268° West 462 532 43,000  Level Cleveland Center
05:03PM 43.5833 -76.4500 248° West 440 506 43,000  Level Toronto Center
05:04PM 43.5833 -76.6167 270° West 430 495 43,000  Level Toronto Center
05:05PM 43.5833 -76.7833 270° West 440 506 43,000 120 Level Toronto Center
05:06PM 43.5833 -76.9333 270° West 420 483 43,300 420 Climbing Toronto Center
05:07PM 43.5667 -77.1167 263° West 430 495 43,900 480 Climbing Toronto Center
05:08PM 43.5667 -77.2667 270° West 420 483 44,300 420 Climbing Toronto Center
05:09PM 43.5736 -77.4886 273° West 423 487 44,900 300 Climbing Cleveland Center
05:10PM 43.5650 -77.6439 266° West 418 481 45,000  Climbing Cleveland Center
05:11PM 43.5606 -77.8044 268° West 418 481 45,000  Level Cleveland Center
05:12PM 43.5539 -77.9622 267° West 423 487 45,000  Level Cleveland Center
05:13PM 43.5469 -78.1231 267° West 423 487 45,000  Level Cleveland Center
05:14PM 43.5419 -78.2808 268° West 423 487 45,000  Level Cleveland Center
05:15PM 43.5167 -78.3833 251° West 420 483 45,000  Level Toronto Center
05:16PM 43.5167 -78.5500 270° West 420 483 45,000  Level Toronto Center
05:17PM 43.5167 -78.7167 270° West 420 483 45,000  Level Toronto Center
05:18PM 43.5000 -78.8500 260° West 420 483 45,000  Level Toronto Center
05:19PM 43.5000 -79.0333 270° West 410 472 45,000  Level Toronto Center
05:20PM 43.4833 -79.1667 260° West 400 460 45,000  Level Toronto Center
05:21PM 43.4833 -79.3167 270° West 400 460 45,000  Level Toronto Center
05:22PM 43.4667 -79.4667 261° West 400 460 45,000  Level Toronto Center
05:23PM 43.4500 -79.6333 262° West 410 472 45,000  Level Toronto Center
05:24PM 43.4500 -79.8000 270° West 410 472 45,000  Level Toronto Center
05:25PM 43.4500 -79.9500 270° West 410 472 45,000  Level Toronto Center
05:26PM 43.4333 -80.1000 261° West 410 472 45,000  Level Toronto Center
05:27PM 43.4333 -80.2500 270° West 410 472 45,000  Level Toronto Center
05:28PM 43.4167 -80.4167 262° West 410 472 45,000  Level Toronto Center
05:29PM 43.4000 -80.5667 261° West 410 472 45,000  Level Toronto Center
05:30PM 43.4000 -80.7333 270° West 420 483 45,000  Level Toronto Center
05:31PM 43.3667 -80.9000 255° West 420 483 45,000  Level Toronto Center
05:32PM 43.3833 -81.0500 279° West 410 472 45,000  Level Toronto Center
05:33PM 43.4000 -81.2167 278° West 420 483 45,000  Level Toronto Center
05:34PM 43.4167 -81.3833 278° West 420 483 45,000  Level Toronto Center
05:35PM 43.4333 -81.5333 279° West 420 483 45,000  Level Toronto Center
05:36PM 43.4333 -81.7000 270° West 430 495 45,000  Level Toronto Center
05:37PM 43.4167 -81.8667 262° West 430 495 45,000  Level Toronto Center
05:38PM 43.3833 -82.0167 253° West 430 495 45,000  Level Toronto Center
05:39PM 43.3833 -82.1833 270° West 430 495 45,000  Level Toronto Center
05:40PM 43.3667 -82.3333 261° West 430 495 45,000  Level Toronto Center
05:41PM 43.3667 -82.5000 270° West 430 495 45,000  Level Toronto Center
05:42PM 43.3333 -82.6667 255° West 430 495 45,000  Level Toronto Center
05:43PM 43.3425 -82.8439 274° West 427 491 45,000  Level Cleveland Center
05:44PM 43.3269 -82.9975 262° West 427 491 45,000  Level Cleveland Center
05:45PM 43.3131 -83.1597 263° West 427 491 45,000  Level Cleveland Center
05:46PM 43.2989 -83.3244 263° West 427 491 45,000  Level Cleveland Center
05:47PM 43.2844 -83.4808 263° West 427 491 45,000  Level Cleveland Center
05:48PM 43.2681 -83.6397 262° West 427 491 45,000  Level Cleveland Center
05:49PM 43.2531 -83.8014 263° West 427 491 45,000  Level Cleveland Center
05:50PM 43.2381 -83.9661 263° West 427 491 45,000  Level Cleveland Center
05:51PM 43.2189 -84.1217 260° West 427 491 45,000  Level Cleveland Center
05:52PM 43.2086 -84.2492 264° West 427 491 45,000  Level Cleveland Center
05:53PM 43.1919 -84.4419 263° West 428 493 45,000  Level Cleveland Center
05:54PM 43.1781 -84.5678 261° West 425 489 45,000  Level Chicago Center
05:55PM 43.1619 -84.7272 262° West 425 489 45,000  Level Chicago Center
05:56PM 43.1453 -84.8839 262° West 419 482 45,000  Level Chicago Center
05:57PM 43.1244 -85.0719 261° West 418 481 45,000  Level Chicago Center
05:58PM 43.1083 -85.2264 262° West 414 476 45,000  Level Chicago Center
05:59PM 43.0917 -85.3828 262° West 415 478 45,000  Level Chicago Center
06:00PM 43.0747 -85.5375 262° West 415 478 45,000  Level Chicago Center
06:01PM 43.0572 -85.6922 261° West 414 476 45,000  Level Chicago Center
06:02PM 43.0378 -85.8739 262° West 419 482 45,000  Level Chicago Center
06:03PM 43.0214 -86.0275 262° West 419 482 45,000  Level Chicago Center
06:04PM 43.0006 -86.1847 260° West 452 520 45,000  Level Chicago Center
06:05PM 42.9794 -86.3678 261° West 409 471 45,000  Level Chicago Center
06:06PM 42.9600 -86.5231 260° West 413 475 45,000  Level Chicago Center
06:07PM 42.9425 -86.6792 261° West 424 488 45,000  Level Chicago Center
06:08PM 42.9231 -86.8294 260° West 407 468 45,000  Level Chicago Center
06:09PM 42.9042 -86.9861 261° West 418 481 45,000  Level Chicago Center
06:10PM 42.8867 -87.1444 261° West 425 489 45,000  Level Chicago Center
06:11PM 42.8603 -87.3264 259° West 417 480 45,000  Level Chicago Center
06:12PM 42.8411 -87.4775 260° West 413 475 45,000  Level Chicago Center
06:13PM 42.8206 -87.6369 260° West 420 483 45,000  Level Chicago Center
06:14PM 42.7994 -87.7972 260° West 428 493 45,000  Level Chicago Center
06:15PM 42.7778 -87.9589 260° West 429 494 45,000  Level Chicago Center
06:16PM 42.7525 -88.1453 260° West 427 491 45,000  Level Chicago Center
06:18PM 42.7308 -88.3053 260° West 427 491 45,000  Level Chicago Center
06:19PM 42.7092 -88.4642 260° West 426 490 45,000  Level Chicago Center
06:20PM 42.6872 -88.6239 259° West 427 491 45,000  Level Chicago Center
06:21PM 42.6636 -88.7836 259° West 429 494 45,000  Level Chicago Center
06:22PM 42.6417 -88.9439 260° West 431 496 45,000  Level Chicago Center
06:23PM 42.6153 -89.1306 259° West 430 495 45,000  Level Chicago Center
06:24PM 42.5922 -89.2883 259° West 427 491 45,000  Level Chicago Center
06:25PM 42.5694 -89.4497 259° West 431 496 45,000  Level Chicago Center
06:26PM 42.5450 -89.6092 258° West 431 496 45,000  Level Chicago Center
06:27PM 42.5222 -89.7703 259° West 433 498 45,000  Level Chicago Center
06:28PM 42.4964 -89.9281 258° West 435 501 45,000  Level Chicago Center
06:29PM 42.4672 -90.1194 258° West 437 503 45,000  Level Chicago Center
06:30PM 42.4439 -90.2797 259° West 437 503 45,000  Level Chicago Center
06:31PM 42.4183 -90.4400 258° West 438 504 45,000  Level Chicago Center
06:32PM 42.3922 -90.6006 258° West 440 506 45,000  Level Chicago Center
06:33PM 42.3678 -90.7608 258° West 440 506 45,000  Level Chicago Center
06:34PM 42.3367 -90.9525 258° West 438 504 45,000  Level Chicago Center
06:35PM 42.3100 -91.1136 257° West 442 509 45,000  Level Chicago Center
06:36PM 42.2839 -91.2733 258° West 439 505 45,000  Level Chicago Center
06:37PM 42.2583 -91.4344 258° West 439 505 45,000  Level Chicago Center
06:38PM 42.2303 -91.5958 257° West 441 507 45,000  Level Chicago Center
06:39PM 42.2033 -91.7583 257° West 444 511 45,000  Level Chicago Center
06:40PM 42.1708 -91.9506 257° West 441 507 45,000  Level Chicago Center
06:41PM 42.1431 -92.1111 257° West 441 507 45,000  Level Chicago Center
06:42PM 42.1158 -92.2719 257° West 443 510 45,000  Level Chicago Center
06:43PM 42.0875 -92.4319 257° West 444 511 45,000  Level Chicago Center
06:44PM 42.0592 -92.5925 257° West 444 511 45,000  Level Chicago Center
06:45PM 42.0250 -92.7867 257° West 446 513 45,000  Level Chicago Center
06:46PM 42.0075 -92.8831 256° West 446 513 45,000  Level Minneapolis Center
06:47PM 41.9781 -93.0436 256° West 446 513 45,000  Level Minneapolis Center
06:48PM 41.9500 -93.2025 257° West 440 506 45,000  Level Minneapolis Center
06:49PM 41.9164 -93.3800 256° West 451 519 45,000  Level Minneapolis Center
06:50PM 41.8867 -93.5375 256° West 446 513 45,000  Level Minneapolis Center
06:51PM 41.8586 -93.6969 257° West 444 511 45,000  Level Minneapolis Center
06:52PM 41.8225 -93.8819 255° West 453 521 45,000  Level Minneapolis Center
06:53PM 41.7919 -94.0444 256° West 451 519 45,000  Level Minneapolis Center
06:54PM 41.7606 -94.2069 256° West 452 520 45,000  Level Minneapolis Center
06:55PM 41.7217 -94.4011 255° West 451 519 45,000  Level Minneapolis Center
06:56PM 41.6914 -94.5636 256° West 450 518 45,000  Level Minneapolis Center
06:57PM 41.6569 -94.7250 254° West 452 520 45,000  Level Minneapolis Center
06:59PM 41.6256 -94.8872 256° West 452 520 45,000  Level Minneapolis Center
07:00PM 41.5947 -95.0478 256° West 448 516 45,000  Level Minneapolis Center
07:01PM 41.5625 -95.2133 255° West 458 527 45,000  Level Minneapolis Center
07:02PM 41.5208 -95.4086 254° West 457 526 45,000  Level Minneapolis Center
07:03PM 41.4872 -95.5706 255° West 455 524 45,000  Level Minneapolis Center
07:04PM 41.4544 -95.7303 255° West 461 531 45,000 -300 Level Minneapolis Center
07:05PM 41.4211 -95.8947 255° West 460 529 44,400 -780 Descending Minneapolis Center
07:06PM 41.3867 -96.0583 254° West 461 531 43,400 -1,020 Descending Minneapolis Center
07:07PM 41.3458 -96.2553 255° West 461 531 42,300 -1,020 Descending Minneapolis Center
07:08PM 41.3114 -96.4094 253° West 463 533 41,300 -1,020 Descending Minneapolis Center
07:09PM 41.2756 -96.5750 254° West 466 536 40,300 -660 Descending Minneapolis Center
07:10PM 41.2381 -96.7439 254° West 474 545 40,000 -180 Descending Minneapolis Center
07:11PM 41.2006 -96.9117 254° West 476 548 40,000  Level Minneapolis Center
07:12PM 41.1564 -97.1142 254° West 477 549 40,000  Level Minneapolis Center
07:13PM 41.1181 -97.2825 253° West 477 549 40,000  Level Minneapolis Center
07:14PM 41.0778 -97.4628 254° West 477 549 40,000  Level Minneapolis Center
07:15PM 41.0400 -97.6306 253° West 476 548 40,000  Level Minneapolis Center
07:16PM 41.0014 -97.7981 253° West 475 547 40,000  Level Minneapolis Center
07:17PM 40.9631 -97.9672 253° West 477 549 40,000  Level Minneapolis Center
07:18PM 40.9236 -98.1350 253° West 477 549 40,000  Level Minneapolis Center
07:19PM 40.8767 -98.3367 253° West 476 548 40,000  Level Minneapolis Center
07:20PM 40.8325 -98.5211 252° West 476 548 40,000  Level Minneapolis Center
07:21PM 40.7928 -98.6878 253° West 476 548 40,000  Level Minneapolis Center
07:22PM 40.7531 -98.8544 253° West 477 549 40,000  Level Minneapolis Center
07:24PM 40.7078 -99.0433 253° West 475 547 40,000  Level Minneapolis Center
07:24PM 40.6847 -99.1425 253° West 474 545 40,000  Level Denver Center
07:25PM 40.6447 -99.3083 252° West 473 544 40,000  Level Denver Center
07:26PM 40.6047 -99.4736 252° West 473 544 40,000  Level Denver Center
07:27PM 40.5547 -99.6706 252° West 471 542 40,000  Level Denver Center
07:28PM 40.5144 -99.8353 252° West 472 543 40,000  Level Denver Center
07:29PM 40.4725 -100.0014 252° West 471 542 40,000  Level Denver Center
07:30PM 40.4331 -100.1578 252° West 470 541 40,000  Level Denver Center
07:31PM 40.3853 -100.3414 251° West 474 545 40,000  Level Denver Center
07:32PM 40.3450 -100.4983 251° West 473 544 40,000  Level Denver Center
07:33PM 40.3036 -100.6547 251° West 472 543 40,000  Level Denver Center
07:35PM 40.2567 -100.8375 251° West 472 543 40,000  Level Denver Center
07:36PM 40.2158 -100.9933 251° West 472 543 40,000  Level Denver Center
07:37PM 40.1689 -101.1767 252° West 473 544 40,000  Level Denver Center
07:38PM 40.1281 -101.3311 251° West 470 541 40,000  Level Denver Center
07:39PM 40.0792 -101.5125 251° West 473 544 40,000  Level Denver Center
07:40PM 40.0375 -101.6672 251° West 472 543 40,000  Level Denver Center
07:41PM 39.9892 -101.8481 251° West 473 544 40,000  Level Denver Center
07:42PM 39.9469 -102.0022 250° West 471 542 40,000  Level Denver Center
07:43PM 39.9053 -102.1567 251° West 473 544 40,000  Level Denver Center
07:44PM 39.8553 -102.3361 250° West 472 543 40,000  Level Denver Center
07:45PM 39.8125 -102.4911 250° West 474 545 40,000  Level Denver Center
07:46PM 39.7622 -102.6692 250° West 472 543 40,000  Level Denver Center
07:47PM 39.7200 -102.8208 250° West 471 542 40,000  Level Denver Center
07:48PM 39.6744 -102.9797 250° West 470 541 40,000  Level Denver Center
07:49PM 39.6194 -103.1719 250° West 475 547 40,000  Level Denver Center
07:50PM 39.5750 -103.3311 250° West 472 543 40,000  Level Denver Center
07:51PM 39.5289 -103.4908 250° West 471 542 40,000  Level Denver Center
07:52PM 39.4819 -103.6497 249° West 472 543 40,000  Level Denver Center
07:53PM 39.4361 -103.8094 250° West 475 547 40,000  Level Denver Center
07:54PM 39.3903 -103.9667 249° West 468 539 40,000  Level Denver Center
07:55PM 39.3425 -104.1253 249° West 473 544 40,000  Level Denver Center
07:56PM 39.2858 -104.3150 249° West 468 539 40,000  Level Denver Center
07:57PM 39.2378 -104.4744 249° West 473 544 40,000  Level Denver Center
07:58PM 39.1900 -104.6319 249° West 468 539 40,000  Level Denver Center
07:59PM 39.1422 -104.7922 249° West 474 545 40,000  Level Denver Center
08:00PM 39.0944 -104.9492 249° West 469 540 40,000  Level Denver Center
08:01PM 39.0464 -105.1053 248° West 469 540 40,000  Level Denver Center
08:02PM 38.9983 -105.2617 248° West 469 540 40,000  Level Denver Center
08:03PM 38.9406 -105.4486 248° West 469 540 40,000  Level Denver Center
08:05PM 38.8925 -105.6025 248° West 467 537 40,000  Level Denver Center
08:06PM 38.8436 -105.7569 248° West 469 540 40,000  Level Denver Center
08:07PM 38.7953 -105.9122 248° West 468 539 40,000  Level Denver Center
08:08PM 38.7436 -106.0658 247° West 470 541 40,000  Level Denver Center
08:09PM 38.6603 -106.1994 231° Southwest 459 528 40,000  Level Denver Center
08:10PM 38.5767 -106.3272 230° Southwest 464 534 40,000  Level Denver Center
08:11PM 38.4936 -106.4544 230° Southwest 463 533 40,000  Level Denver Center
08:12PM 38.4100 -106.5794 230° Southwest 461 531 40,000  Level Denver Center
08:13PM 38.3189 -106.7169 230° Southwest 461 531 40,000  Level Denver Center
08:14PM 38.2519 -106.8758 242° Southwest 462 532 40,000  Level Denver Center
08:15PM 38.2036 -107.0311 248° West 468 539 40,000  Level Denver Center
08:16PM 38.1525 -107.1969 249° West 468 539 40,000  Level Denver Center
08:17PM 38.1075 -107.3417 248° West 462 532 40,000  Level Denver Center
08:18PM 38.0594 -107.4981 249° West 464 534 40,000  Level Denver Center
08:19PM 38.0058 -107.6653 248° West 461 531 40,000  Level Denver Center
08:20PM 37.9606 -107.8128 249° West 467 537 40,000  Level Denver Center
08:21PM 37.9067 -107.9817 248° West 465 535 40,000  Level Denver Center
08:22PM 37.8600 -108.1286 248° West 469 540 40,000  Level Denver Center
08:23PM 37.8056 -108.2961 248° West 465 535 40,000  Level Denver Center
08:24PM 37.7600 -108.4422 249° West 467 537 40,000  Level Denver Center
08:25PM 37.7061 -108.6072 248° West 460 529 40,000  Level Denver Center
08:26PM 37.6603 -108.7511 248° West 457 526 40,000  Level Denver Center
08:27PM 37.6142 -108.8942 248° West 460 529 40,000  Level Denver Center
08:28PM 37.5594 -109.0547 247° West 454 522 40,000  Level Denver Center
08:29PM 37.5125 -109.1975 248° West 461 531 40,000  Level Denver Center
08:30PM 37.4581 -109.3600 247° West 454 522 40,000  Level Denver Center
08:31PM 37.4114 -109.5006 247° West 456 525 40,000  Level Denver Center
08:32PM 37.3572 -109.6628 247° West 454 522 40,000  Level Denver Center
08:33PM 37.3097 -109.8031 247° West 455 524 40,000  Level Denver Center
08:34PM 37.2550 -109.9658 247° West 456 525 40,000  Level Denver Center
08:36PM 37.2072 -110.1061 247° West 458 527 40,000  Level Denver Center
08:37PM 37.1583 -110.2428 246° West 455 524 40,000  Level Denver Center
08:38PM 37.0981 -110.4172 247° West 456 525 40,000  Level Denver Center
08:39PM 37.0481 -110.5625 247° West 455 524 40,000  Level Denver Center
08:40PM 36.9986 -110.7089 247° West 456 525 40,000  Level Denver Center
08:41PM 36.9506 -110.8511 247° West 449 517 40,000  Level Denver Center
08:42PM 36.9006 -110.9936 246° West 447 514 40,000  Level Denver Center
08:43PM 36.8486 -111.1378 246° West 451 519 40,000  Level Denver Center
08:44PM 36.7972 -111.2833 246° West 455 524 40,000  Level Denver Center
08:45PM 36.7344 -111.4561 246° West 456 525 40,000  Level Denver Center
08:46PM 36.6811 -111.6000 245° Southwest 455 524 40,000  Level Denver Center
08:47PM 36.6308 -111.7425 246° West 452 520 40,000  Level Denver Center
08:48PM 36.5800 -111.8853 246° West 451 519 40,000  Level Los Angeles Center
08:49PM 36.5181 -112.0544 246° West 448 516 40,000  Level Los Angeles Center
08:50PM 36.4675 -112.1936 246° West 444 511 40,000  Level Los Angeles Center
08:51PM 36.4158 -112.3344 246° West 446 513 40,000  Level Los Angeles Center
08:52PM 36.3639 -112.4747 245° Southwest 447 514 40,000  Level Los Angeles Center
08:53PM 36.3136 -112.6131 246° West 442 509 40,000  Level Los Angeles Center
08:54PM 36.2631 -112.7517 246° West 441 507 40,000  Level Los Angeles Center
08:55PM 36.2100 -112.8917 245° Southwest 445 512 40,000  Level Los Angeles Center
08:56PM 36.1475 -113.0589 245° Southwest 447 514 40,000  Level Los Angeles Center
08:57PM 36.0958 -113.1975 245° Southwest 445 512 40,000  Level Los Angeles Center
08:58PM 36.0422 -113.3331 244° Southwest 443 510 40,000  Level Los Angeles Center
08:59PM 35.9861 -113.4708 243° Southwest 445 512 40,000  Level Los Angeles Center
09:00PM 35.9375 -113.6094 247° West 446 513 40,000  Level Los Angeles Center
09:01PM 35.8853 -113.7475 245° Southwest 445 512 40,000  Level Los Angeles Center
09:02PM 35.8314 -113.8858 244° Southwest 446 513 40,000  Level Los Angeles Center
09:03PM 35.7772 -114.0228 244° Southwest 445 512 40,000  Level Los Angeles Center
09:04PM 35.7250 -114.1597 245° Southwest 442 509 40,000  Level Los Angeles Center
09:05PM 35.6717 -114.2950 244° Southwest 441 507 40,000  Level Los Angeles Center
09:07PM 35.6083 -114.4572 244° Southwest 437 503 40,000 -240 Level Los Angeles Center
09:08PM 35.5553 -114.5936 244° Southwest 440 506 39,600 -1,380 Descending Los Angeles Center
09:09PM 35.5019 -114.7300 244° Southwest 443 510 37,200 -2,280 Descending Los Angeles Center
09:10PM 35.4483 -114.8622 244° Southwest 434 499 34,900 -1,620 Descending Los Angeles Center
09:11PM 35.3967 -114.9961 245° Southwest 433 498 34,000 -480 Descending Los Angeles Center
09:12PM 35.3433 -115.1272 244° Southwest 430 495 34,000  Level Los Angeles Center
09:13PM 35.2764 -115.2933 244° Southwest 444 511 34,000  Level Los Angeles Center
09:14PM 35.2189 -115.4342 243° Southwest 458 527 34,000  Level Los Angeles Center
09:15PM 35.1683 -115.5606 244° Southwest 466 536 34,000  Level Los Angeles Center
09:16PM 35.1111 -115.7025 244° Southwest 465 535 34,000  Level Los Angeles Center
09:17PM 35.0539 -115.8436 244° Southwest 464 534 34,000 -1,020 Level Los Angeles Center
09:18PM 34.9858 -116.0075 243° Southwest 453 521 32,000 -2,100 Descending Los Angeles Center
09:19PM 34.9308 -116.1397 243° Southwest 440 506 29,700 -2,280 Descending Los Angeles Center
09:20PM 34.8778 -116.2717 244° Southwest 430 495 27,400 -2,280 Descending Los Angeles Center
09:21PM 34.8225 -116.3978 242° Southwest 429 494 25,100 -1,920 Descending Los Angeles Center
09:22PM 34.7922 -116.5325 255° West 424 488 23,500 -1,260 Descending Los Angeles Center
09:23PM 34.7778 -116.6636 262° West 398 458 22,600 -960 Descending Los Angeles Center
09:24PM 34.7656 -116.7908 263° West 382 440 21,600 -960 Descending Los Angeles Center
09:25PM 34.7511 -116.9239 263° West 391 450 20,700 -1,620 Descending Los Angeles Center
09:26PM 34.7342 -117.0858 263° West 400 460 18,300 -2,160 Descending Los Angeles Center
09:27PM 34.7206 -117.2200 263° West 400 460 16,300 -1,980 Descending Los Angeles Center
09:28PM 34.7083 -117.3517 264° West 391 450 14,300 -1,620 Descending Los Angeles Center
09:29PM 34.6936 -117.4747 262° West 373 429 13,100 -600 Descending Los Angeles Center
09:30PM 34.6794 -117.5864 261° West 337 388 13,100  Level Los Angeles Center
09:31PM 34.6600 -117.7142 260° West 377 434 13,100  Level Los Angeles Center
09:32PM 34.6419 -117.8447 260° West 392 451 13,100  Level Los Angeles Center
09:33PM 34.6231 -117.9747 260° West 391 450 13,100 -360 Level Los Angeles Center
09:34PM 34.6058 -118.0958 260° West 365 420 12,400 -1,260 Descending Los Angeles Center
09:35PM 34.5892 -118.2089 260° West 316 364 10,500 -1,680 Descending Los Angeles Center
09:36PM 34.5747 -118.3025 259° West 290 334 9,000 -1,200 Descending Los Angeles Center
09:37PM 34.5589 -118.3939 258° West 280 322 8,100 -900 Descending Los Angeles Center
09:38PM 34.4928 -118.4794 227° Southwest 300 345 7,200 -960 Descending Los Angeles Center
09:39PM 34.4322 -118.5456 222° Southwest 294 338 6,200 -840 Descending Los Angeles Center
09:40PM 34.3819 -118.6006 222° Southwest 253 291 5,600 -600 Descending Los Angeles Center
09:41PM 34.3192 -118.6439 210° Southwest 259 298 5,000 -780 Descending Los Angeles Center
09:42PM 34.2553 -118.6356 174° South 259 298 4,000 -1,020 Descending Los Angeles Center
09:43PM 34.2192 -118.5742 125° Southeast 244 281 3,000 -480 Descending Los Angeles Center
09:45PM 34.2000 -118.5000 107° East 164 189 3,100 -360 Climbing Southern California TRACON
09:46PM 34.2000 -118.4500 90° East 142 163 2,300 -840 Descending Southern California TRACON
09:46PM 34.2000 -118.4167 90° East 132 152 1,600 -780 Descending Southern California TRACON
09:49PM 34.2000 -118.3500 90° East  Level FlightAware Approximate
09:56PM 34.2007 -118.3587 90° East  Level Estimated